CST,Max TemperatureF,Mean TemperatureF,Min TemperatureF,Max Dew PointF,MeanDew PointF,Min DewpointF,Max Humidity, Mean Humidity, Min Humidity, Max Sea Level PressureIn, Mean Sea Level PressureIn, Min Sea Level PressureIn, Max VisibilityMiles, Mean VisibilityMiles, Min VisibilityMiles, Max Wind SpeedMPH, Mean Wind SpeedMPH, Max Gust SpeedMPH,PrecipitationIn, CloudCover, Events, WindDirDegrees
2013-2-1,8,3,-2,5,-3,-9,85,69,56,30.28,30.19,30.10,10,8,2,17,12,23,0.00,4,Snow,251
2013-2-2,12,8,5,7,2,-2,85,74,57,30.12,30.06,30.01,10,7,1,12,4,16,0.00,5,Snow,304
2013-2-3,23,14,5,12,5,0,85,72,58,30.03,29.98,29.89,10,9,2,18,5,25,0.00,6,Snow,265
2013-2-4,17,12,8,12,7,0,93,77,62,30.01,29.96,29.91,10,6,2,12,4,,0.00,5,Snow,341
2013-2-5,26,14,3,21,11,0,100,78,63,30.08,29.91,29.77,10,9,0,17,4,22,0.00,6,Snow,288
2013-2-6,33,20,6,28,17,3,92,80,59,30.22,30.14,30.07,10,8,5,10,3,,0.00,3,,178
2013-2-7,33,28,23,32,29,21,100,90,86,30.10,30.01,29.90,7,3,0,16,6,22,0.00,8,Snow,102
2013-2-8,24,18,12,21,17,10,100,89,80,30.39,30.25,30.01,10,8,2,16,10,22,0.00,6,Snow,338
2013-2-9,28,16,5,25,14,3,100,90,74,30.40,30.26,30.09,10,4,0,14,1,16,0.00,4,Fog,184
2013-2-10,42,28,14,39,30,12,100,91,76,30.08,29.76,29.41,10,6,0,16,5,24,0.00,6,Fog-Rain,164
2013-2-11,41,34,28,32,26,19,93,77,69,29.97,29.65,29.42,10,10,7,28,20,39,0.00,8,Snow,252
2013-2-12,28,24,21,21,19,16,86,78,64,30.07,29.97,29.86,10,10,10,16,11,23,0.00,5,,252
2013-2-13,39,30,21,28,24,19,93,83,61,29.86,29.76,29.69,10,8,3,12,4,17,0.00,3,,229
2013-2-14,35,32,28,32,28,21,93,83,69,29.96,29.75,29.58,10,9,3,18,7,29,0.02,7,Rain-Snow,246
2013-2-15,28,21,14,27,11,5,93,67,50,30.17,30.11,29.97,10,9,2,15,10,22,0.00,3,Snow,315
2013-2-16,17,12,6,5,2,-2,79,64,45,30.18,30.15,30.11,10,10,10,14,8,23,0.00,2,,300
2013-2-17,28,16,5,14,3,-2,72,57,33,30.20,30.12,29.98,10,10,10,13,4,17,0.00,1,,206
2013-2-18,46,37,28,41,27,14,100,75,55,29.98,29.64,29.39,10,8,2,21,11,28,0.20,4,Rain-Snow,189
2013-2-19,32,20,8,30,10,0,93,75,62,30.13,29.79,29.46,10,7,1,26,19,34,0.00,6,Snow,278
2013-2-20,19,12,6,10,4,0,79,69,58,30.36,30.27,30.13,10,10,10,16,11,22,0.00,0,,301
2013-2-21,26,20,14,21,16,9,86,80,68,30.40,30.27,30.09,10,10,3,17,10,26,0.00,7,Snow,28
2013-2-22,30,27,24,27,25,21,93,88,80,30.08,29.88,29.78,10,6,0,16,11,28,0.00,8,Snow,165
2013-2-23,28,24,21,25,20,16,86,78,64,29.91,29.86,29.83,10,9,7,15,10,18,0.00,6,Snow,243
2013-2-24,35,27,19,25,20,16,100,81,52,30.14,30.04,29.91,10,8,0,10,6,,0.00,1,Fog,272
2013-2-25,39,29,19,28,23,18,100,85,49,30.17,30.11,30.05,10,6,0,9,1,,0.00,2,Fog,108
2013-2-26,33,32,30,32,29,25,100,88,70,30.04,29.80,29.59,10,6,0,23,12,37,0.00,4,Snow,49
2013-2-27,33,32,30,30,30,28,93,92,87,29.73,29.63,29.56,10,3,0,23,15,28,0.00,8,Snow,1
2013-2-28,33,30,26,30,25,19,93,83,69,30.10,29.92,29.73,10,10,3,20,13,25,0.00,8,Snow,350